Time;durP1;ratioP1;P1;durP2;ratioP2;P2;SDS_P1;SDS_P2;PMS_P1;PMS_P2;Temp;Humidity;BMP_temperature;BMP_pressure;BME280_temperature;BME280_humidity;BME280_pressure;Samples;Min_cycle;Max_cycle;Signal;HPM_P1;HPM_P2
2023/08/01 00:01:10;;;;;;;5.18;3.00;;;;;;;-145.00;56.42;72320.59;5028751;28;20068;-76
2023/08/01 00:03:38;;;;;;;6.78;3.17;;;;;;;-145.00;56.02;72322.69;5029522;28;20408;-75
2023/08/01 00:06:04;;;;;;;4.75;3.35;;;;;;;-145.00;56.11;72328.94;5029074;28;20055;-74
2023/08/01 00:08:31;;;;;;;4.88;2.70;;;;;;;-145.00;56.28;72333.09;5028977;28;20069;-75
2023/08/01 00:10:57;;;;;;;7.03;3.45;;;;;;;-145.00;56.35;72322.69;5039271;28;20052;-74
2023/08/01 00:13:24;;;;;;;6.80;3.08;;;;;;;-145.00;55.96;72318.53;5048971;28;20047;-75
2023/08/01 00:15:50;;;;;;;4.88;3.42;;;;;;;-145.00;55.77;72314.38;5049515;28;20045;-74
2023/08/01 00:18:17;;;;;;;5.15;3.05;;;;;;;-145.00;55.11;72306.03;5050734;28;20079;-75
2023/08/01 00:20:44;;;;;;;5.13;2.97;;;;;;;-145.00;55.02;72301.88;5034921;28;20087;-75
2023/08/01 00:23:11;;;;;;;4.53;2.97;;;;;;;-145.00;54.79;72297.72;5032454;28;20056;-76
2023/08/01 00:25:37;;;;;;;4.82;2.83;;;;;;;-145.00;54.63;72289.38;5033239;28;20041;-75
2023/08/01 00:28:04;;;;;;;5.43;2.70;;;;;;;-145.00;54.30;72289.38;5032930;28;20053;-75
2023/08/01 00:30:31;;;;;;;4.47;2.85;;;;;;;-145.00;53.57;72291.47;5015411;28;20037;-74
2023/08/01 00:32:57;;;;;;;4.22;2.80;;;;;;;-145.00;53.48;72285.22;5013477;28;20053;-75
2023/08/01 00:35:24;;;;;;;5.35;2.78;;;;;;;-145.00;52.71;72281.06;5013026;28;20497;-74
2023/08/01 00:37:52;;;;;;;5.28;2.83;;;;;;;-145.00;51.85;72268.56;5013413;28;20541;-75
2023/08/01 00:40:19;;;;;;;4.68;2.80;;;;;;;-145.00;50.80;72285.22;5038521;28;20045;-75
2023/08/01 00:42:45;;;;;;;5.38;3.10;;;;;;;-145.00;51.47;72266.50;5053360;28;20053;-74
2023/08/01 00:45:12;;;;;;;5.88;2.67;;;;;;;-145.00;51.31;72258.16;5037543;28;20137;-75
2023/08/01 00:47:39;;;;;;;4.63;2.90;;;;;;;-145.00;51.89;72251.91;5029977;28;20068;-74
2023/08/01 00:50:07;;;;;;;5.35;2.67;;;;;;;-145.00;51.83;72247.75;5006836;28;20052;-74
2023/08/01 00:52:36;;;;;;;6.38;2.80;;;;;;;-145.00;50.20;72245.69;5013218;28;20061;-74
2023/08/01 00:55:08;;;;;;;6.70;2.95;;;;;;;-145.00;50.41;72235.25;5018828;28;20042;-74
2023/08/01 00:57:35;;;;;;;5.90;2.60;;;;;;;-145.00;49.77;72235.25;5051512;28;20041;-74
2023/08/01 01:00:01;;;;;;;3.95;2.45;;;;;;;-145.00;49.99;72231.09;5028237;28;20512;-74
2023/08/01 01:02:28;;;;;;;5.65;2.53;;;;;;;-145.00;49.34;72220.69;5016337;28;20063;-74
2023/08/01 01:04:54;;;;;;;10.10;2.83;;;;;;;-145.00;49.76;72220.69;5033133;28;20055;-75
2023/08/01 01:07:23;;;;;;;3.85;2.33;;;;;;;-145.00;49.94;72222.78;5052538;28;20623;-75
2023/08/01 01:09:51;;;;;;;5.97;2.40;;;;;;;-145.00;50.90;72226.94;5043489;28;20132;-75
2023/08/01 01:12:19;;;;;;;5.70;2.65;;;;;;;-145.00;51.78;72256.09;5051728;28;20516;-74
2023/08/01 01:14:45;;;;;;;5.28;2.63;;;;;;;-145.00;52.24;72276.91;5052607;28;20076;-75
2023/08/01 01:17:12;;;;;;;5.55;2.80;;;;;;;-145.00;52.27;72285.22;5042476;28;20051;-75
2023/08/01 01:19:39;;;;;;;4.82;2.95;;;;;;;-145.00;53.05;72276.91;5033326;28;20494;-75
2023/08/01 01:22:09;;;;;;;5.72;2.67;;;;;;;-145.00;52.19;72281.06;5012344;28;20056;-74
2023/08/01 01:24:36;;;;;;;4.90;2.72;;;;;;;-145.00;52.33;72264.41;5012589;28;20046;-75
2023/08/01 01:27:05;;;;;;;4.65;3.10;;;;;;;-145.00;52.16;72251.91;5012256;28;20052;-74
2023/08/01 01:29:34;;;;;;;4.47;2.78;;;;;;;-145.00;51.34;72241.50;5012149;28;20470;-75
2023/08/01 01:32:01;;;;;;;5.93;2.88;;;;;;;-145.00;51.25;72239.44;5024710;28;20068;-75
2023/08/01 01:34:29;;;;;;;4.22;2.83;;;;;;;-145.00;51.98;72226.94;5030431;28;20045;-75
2023/08/01 01:36:55;;;;;;;5.15;3.22;;;;;;;-145.00;52.14;72222.78;5032217;28;20120;-75
2023/08/01 01:39:23;;;;;;;5.93;3.13;;;;;;;-145.00;52.04;72220.69;5031739;28;20056;-75
2023/08/01 01:41:52;;;;;;;9.38;3.30;;;;;;;-145.00;50.61;72210.28;5051418;28;20404;-75
2023/08/01 01:44:19;;;;;;;6.47;2.75;;;;;;;-145.00;50.40;72197.81;5017505;28;20641;-74
2023/08/01 01:46:46;;;;;;;6.72;2.95;;;;;;;-145.00;50.11;72206.13;5012097;28;20481;-74
2023/08/01 01:49:12;;;;;;;4.53;2.88;;;;;;;-145.00;51.34;72229.03;5011690;28;20050;-75
2023/08/01 01:51:39;;;;;;;5.13;2.97;;;;;;;-145.00;51.08;72220.69;5012016;28;20049;-74
2023/08/01 01:54:05;;;;;;;4.70;2.72;;;;;;;-145.00;50.49;72226.94;5011393;28;20077;-74
2023/08/01 01:56:35;;;;;;;4.90;2.88;;;;;;;-145.00;50.32;72254.00;5011666;28;20046;-74
2023/08/01 01:59:02;;;;;;;4.38;2.65;;;;;;;-145.00;50.55;72239.44;5011507;28;20567;-74
2023/08/01 02:01:28;;;;;;;9.70;3.45;;;;;;;-145.00;50.49;72222.78;5011443;28;20042;-74
2023/08/01 02:03:55;;;;;;;3.42;2.20;;;;;;;-145.00;50.96;72210.28;5011610;28;20498;-74
2023/08/01 02:06:21;;;;;;;8.02;3.10;;;;;;;-145.00;50.95;72201.97;5011212;28;20120;-74
2023/08/01 02:08:48;;;;;;;9.10;3.22;;;;;;;-145.00;51.38;72185.31;5027993;28;20053;-75
2023/08/01 02:11:14;;;;;;;5.03;3.05;;;;;;;-145.00;50.35;72185.31;5041984;28;20416;-76
2023/08/01 02:13:42;;;;;;;5.63;2.53;;;;;;;-145.00;48.94;72170.75;5051436;28;20049;-75
2023/08/01 02:16:08;;;;;;;8.13;3.20;;;;;;;-145.00;49.61;72206.13;5020837;28;20046;-75
2023/08/01 02:18:35;;;;;;;3.67;2.67;;;;;;;-145.00;49.60;72172.81;5012698;28;20054;-74
2023/08/01 02:21:01;;;;;;;5.05;2.97;;;;;;;-145.00;49.55;72158.25;5030444;28;20041;-74
2023/08/01 02:23:28;;;;;;;4.53;3.03;;;;;;;-145.00;49.43;72156.19;5030924;28;20468;-75
2023/08/01 02:25:55;;;;;;;5.53;2.80;;;;;;;-145.00;49.40;72149.94;5031227;28;20577;-76
2023/08/01 02:28:21;;;;;;;5.32;2.70;;;;;;;-145.00;49.09;72143.69;5030727;28;20511;-76
2023/08/01 02:30:50;;;;;;;4.68;2.90;;;;;;;-145.00;48.93;72135.34;5030741;28;20056;-75
2023/08/01 02:33:17;;;;;;;9.48;3.72;;;;;;;-145.00;49.05;72131.19;5030717;28;20260;-74
2023/08/01 02:35:43;;;;;;;4.47;2.92;;;;;;;-145.00;48.87;72129.13;5030885;28;20509;-74
2023/08/01 02:38:10;;;;;;;5.03;2.72;;;;;;;-145.00;49.20;72137.44;5030487;28;20049;-75
2023/08/01 02:40:36;;;;;;;5.80;3.20;;;;;;;-145.00;48.90;72129.13;5044686;28;20057;-74
2023/08/01 02:43:02;;;;;;;4.80;2.78;;;;;;;-145.00;48.94;72122.88;5024459;28;20049;-74
2023/08/01 02:45:29;;;;;;;5.90;2.90;;;;;;;-145.00;49.12;72118.72;5010797;28;20046;-74
2023/08/01 02:47:57;;;;;;;5.90;3.25;;;;;;;-145.00;48.03;72114.53;5010713;28;20704;-76
2023/08/01 02:50:23;;;;;;;4.10;2.80;;;;;;;-145.00;48.35;72112.47;5029556;28;20045;-76
2023/08/01 02:52:50;;;;;;;5.20;2.75;;;;;;;-145.00;48.57;72102.06;5030359;28;20042;-75
2023/08/01 02:55:16;;;;;;;4.95;2.88;;;;;;;-145.00;48.80;72102.06;5030209;28;20046;-75
2023/08/01 02:57:44;;;;;;;5.05;2.90;;;;;;;-145.00;48.13;72104.13;5030730;28;20651;-76
2023/08/01 03:00:12;;;;;;;5.95;2.83;;;;;;;-145.00;47.75;72097.91;5030021;28;20044;-76
2023/08/01 03:02:39;;;;;;;6.03;2.72;;;;;;;-145.00;48.19;72108.31;5030155;28;20049;-74
2023/08/01 03:05:09;;;;;;;8.98;3.03;;;;;;;-145.00;48.18;72102.06;5034914;28;20048;-74
2023/08/01 03:07:36;;;;;;;5.75;3.50;;;;;;;-145.00;48.62;72110.38;5048765;28;20555;-74
2023/08/01 03:10:03;;;;;;;9.88;3.60;;;;;;;-145.00;48.44;72131.19;5043655;28;20051;-73
2023/08/01 03:12:29;;;;;;;5.07;3.03;;;;;;;-145.00;48.96;72156.19;5049176;28;20052;-74
2023/08/01 03:14:57;;;;;;;5.60;3.28;;;;;;;-145.00;48.52;72135.34;5050078;28;20045;-75
2023/08/01 03:17:23;;;;;;;5.75;3.42;;;;;;;-145.00;48.40;72131.19;5029095;28;20052;-76
2023/08/01 03:19:50;;;;;;;6.50;3.40;;;;;;;-145.00;49.37;72160.34;5009901;28;20053;-76
2023/08/01 03:22:18;;;;;;;9.35;2.80;;;;;;;-145.00;49.75;72168.66;5009923;28;20049;-76
2023/08/01 03:24:44;;;;;;;5.07;2.88;;;;;;;-145.00;50.51;72185.31;5010278;28;20050;-76
2023/08/01 03:27:11;;;;;;;6.10;3.17;;;;;;;-145.00;51.81;72214.44;5009936;28;20714;-75
2023/08/01 03:29:38;;;;;;;5.85;3.10;;;;;;;-145.00;53.63;72264.41;5020447;28;20049;-75
2023/08/01 03:32:05;;;;;;;4.85;3.08;;;;;;;-145.00;55.17;72318.53;5024355;28;20548;-75
2023/08/01 03:34:31;;;;;;;4.35;2.95;;;;;;;-145.00;55.65;72326.84;5029975;28;20408;-75
2023/08/01 03:36:58;;;;;;;6.32;3.22;;;;;;;-145.00;57.13;72343.50;5029879;28;20041;-75
2023/08/01 03:39:26;;;;;;;6.80;3.10;;;;;;;-145.00;57.95;72328.94;5037182;28;20489;-75
2023/08/01 03:41:52;;;;;;;6.68;3.75;;;;;;;-145.00;60.20;72351.84;5026801;28;20053;-75
2023/08/01 03:44:19;;;;;;;4.97;3.00;;;;;;;-145.00;60.24;72368.47;5029431;28;20049;-76
2023/08/01 03:46:47;;;;;;;7.70;3.53;;;;;;;-145.00;60.58;72383.06;5029832;28;20051;-75
2023/08/01 03:49:13;;;;;;;4.72;3.03;;;;;;;-145.00;60.62;72383.06;5029307;28;20046;-75
2023/08/01 03:51:40;;;;;;;8.35;3.70;;;;;;;-145.00;59.91;72383.06;5030511;28;20049;-75
2023/08/01 03:54:06;;;;;;;9.38;3.58;;;;;;;-145.00;60.20;72405.94;5027838;28;20050;-74
2023/08/01 03:56:34;;;;;;;10.73;3.22;;;;;;;-145.00;60.63;72405.94;5013904;28;20444;-75
2023/08/01 03:59:04;;;;;;;5.10;3.17;;;;;;;-145.00;60.44;72401.78;5014245;28;20052;-75
2023/08/01 04:01:30;;;;;;;6.90;3.35;;;;;;;-145.00;61.12;72414.28;5013588;28;20045;-75
2023/08/01 04:03:57;;;;;;;7.57;3.72;;;;;;;-145.00;62.17;72403.88;5031510;28;20049;-76
2023/08/01 04:06:23;;;;;;;5.85;3.25;;;;;;;-145.00;61.88;72393.47;5027540;28;20407;-75
2023/08/01 04:08:51;;;;;;;8.82;3.50;;;;;;;-145.00;61.67;72385.13;5021067;28;20147;-75
2023/08/01 04:11:18;;;;;;;7.55;3.55;;;;;;;-145.00;62.03;72410.13;5052576;28;20102;-75
2023/08/01 04:13:45;;;;;;;6.97;3.08;;;;;;;-145.00;62.77;72422.59;5053581;28;20056;-75
2023/08/01 04:16:12;;;;;;;6.60;3.45;;;;;;;-145.00;63.85;72430.94;5052823;28;20053;-75
2023/08/01 04:18:38;;;;;;;7.07;3.53;;;;;;;-145.00;64.74;72437.19;5045174;28;20063;-75
2023/08/01 04:21:06;;;;;;;7.63;3.53;;;;;;;-145.00;64.97;72441.34;5032583;28;20042;-74
2023/08/01 04:23:32;;;;;;;7.20;3.63;;;;;;;-145.00;65.85;72464.22;5032720;28;20049;-74
2023/08/01 04:25:59;;;;;;;6.88;3.53;;;;;;;-145.00;67.22;72489.22;5033296;28;20048;-75
2023/08/01 04:28:25;;;;;;;7.05;4.07;;;;;;;-145.00;67.80;72472.56;5032577;28;20049;-75
2023/08/01 04:30:53;;;;;;;7.22;3.63;;;;;;;-145.00;68.12;72472.56;5034934;28;20051;-75
2023/08/01 04:33:20;;;;;;;6.25;3.88;;;;;;;-145.00;68.35;72460.06;5053269;28;20036;-77
2023/08/01 04:35:46;;;;;;;6.45;3.67;;;;;;;-145.00;69.08;72470.47;5055150;28;20041;-76
2023/08/01 04:38:13;;;;;;;9.20;4.53;;;;;;;-145.00;70.09;72495.47;5037874;28;20064;-77
2023/08/01 04:40:39;;;;;;;6.03;4.20;;;;;;;-145.00;71.39;72510.03;5051071;28;20150;-76
2023/08/01 04:43:06;;;;;;;9.00;4.32;;;;;;;-145.00;70.97;72487.13;5040426;28;20055;-76
2023/08/01 04:45:32;;;;;;;5.88;3.65;;;;;;;-145.00;71.33;72487.13;5035167;28;20049;-77
2023/08/01 04:48:00;;;;;;;11.70;4.07;;;;;;;-145.00;71.76;72499.63;5035294;28;20057;-76
2023/08/01 04:50:27;;;;;;;6.80;4.28;;;;;;;-145.00;72.05;72495.47;5035628;28;20064;-76
2023/08/01 04:52:53;;;;;;;6.15;4.03;;;;;;;-145.00;72.96;72518.34;5036989;28;20047;-76
2023/08/01 04:55:20;;;;;;;8.80;4.32;;;;;;;-145.00;73.64;72539.16;5048426;28;20048;-76
2023/08/01 04:57:46;;;;;;;8.88;4.47;;;;;;;-145.00;74.43;72553.75;5055042;28;20056;-76
2023/08/01 05:00:14;;;;;;;12.25;5.40;;;;;;;-145.00;74.92;72551.66;5051372;28;20060;-76
2023/08/01 05:02:40;;;;;;;8.40;4.93;;;;;;;-145.00;74.57;72524.59;5050686;28;20053;-76
2023/08/01 05:05:09;;;;;;;8.00;4.55;;;;;;;-145.00;75.11;72516.28;5049722;28;20049;-76
2023/08/01 05:07:35;;;;;;;9.52;5.25;;;;;;;-145.00;76.07;72520.44;5044038;28;20061;-76
2023/08/01 05:10:02;;;;;;;10.07;4.88;;;;;;;-145.00;76.82;72520.44;5048839;28;20393;-76
2023/08/01 05:12:28;;;;;;;8.45;4.68;;;;;;;-145.00;76.64;72497.53;5054378;28;20041;-76
2023/08/01 05:14:55;;;;;;;7.50;4.50;;;;;;;-145.00;76.63;72493.38;5054460;28;20413;-74
2023/08/01 05:17:23;;;;;;;8.93;5.38;;;;;;;-145.00;76.91;72482.97;5053678;28;20067;-75
2023/08/01 05:19:49;;;;;;;11.93;5.60;;;;;;;-145.00;77.11;72485.06;5053605;28;20076;-75
2023/08/01 05:22:17;;;;;;;8.27;5.07;;;;;;;-145.00;77.49;72474.63;5052670;28;20485;-75
2023/08/01 05:24:44;;;;;;;9.85;5.47;;;;;;;-145.00;78.15;72468.41;5055526;28;20044;-75
2023/08/01 05:27:10;;;;;;;12.27;5.43;;;;;;;-145.00;78.01;72468.41;5059148;28;20080;-75
2023/08/01 05:29:37;;;;;;;11.10;5.35;;;;;;;-145.00;78.34;72468.41;5059791;28;20045;-74
2023/08/01 05:32:04;;;;;;;7.75;5.28;;;;;;;-145.00;78.43;72472.56;5058432;28;20052;-74
2023/08/01 05:34:30;;;;;;;13.18;5.25;;;;;;;-145.00;77.82;72474.63;5060143;28;20053;-75
2023/08/01 05:36:57;;;;;;;8.02;5.22;;;;;;;-145.00;78.15;72468.41;5056605;28;20488;-75
2023/08/01 05:39:25;;;;;;;16.33;6.25;;;;;;;-145.00;78.53;72468.41;5049984;28;20055;-74
2023/08/01 05:41:51;;;;;;;10.38;5.53;;;;;;;-145.00;78.98;72468.41;5053019;28;20049;-75
2023/08/01 05:44:18;;;;;;;9.50;5.40;;;;;;;-145.00;79.30;72476.72;5052005;28;20052;-75
2023/08/01 05:46:44;;;;;;;12.95;6.45;;;;;;;-145.00;79.42;72468.41;5052558;28;20041;-75
2023/08/01 05:49:11;;;;;;;9.70;5.63;;;;;;;-145.00;79.15;72464.22;5052055;28;20048;-75
2023/08/01 05:51:37;;;;;;;8.60;5.50;;;;;;;-145.00;80.48;72493.38;5053050;28;20071;-75
2023/08/01 05:54:04;;;;;;;10.50;5.82;;;;;;;-145.00;80.02;72476.72;5052744;28;20048;-75
2023/08/01 05:56:32;;;;;;;8.15;5.57;;;;;;;-145.00;79.92;72460.06;5052571;28;20041;-76
2023/08/01 05:58:59;;;;;;;8.35;5.45;;;;;;;-145.00;80.16;72464.22;5052556;28;20056;-75
2023/08/01 06:01:25;;;;;;;10.32;5.90;;;;;;;-145.00;80.56;72485.06;5051354;28;20041;-75
2023/08/01 06:03:52;;;;;;;11.40;6.07;;;;;;;-145.00;80.90;72505.88;5052560;28;20044;-75
2023/08/01 06:06:21;;;;;;;10.55;6.10;;;;;;;-145.00;81.50;72514.19;5052496;28;20386;-74
2023/08/01 06:08:48;;;;;;;9.55;5.63;;;;;;;-145.00;81.48;72503.78;5049859;28;20056;-74
2023/08/01 06:11:14;;;;;;;9.55;6.03;;;;;;;-145.00;81.95;72499.63;5052805;28;20048;-73
2023/08/01 06:13:42;;;;;;;17.08;5.88;;;;;;;-145.00;81.23;72472.56;5053138;28;20049;-74
2023/08/01 06:16:09;;;;;;;13.02;5.75;;;;;;;-145.00;80.37;72443.41;5041786;28;20118;-74
2023/08/01 06:18:36;;;;;;;9.45;5.32;;;;;;;-145.00;79.60;72439.25;5053439;28;20459;-74
2023/08/01 06:21:03;;;;;;;8.68;4.65;;;;;;;-145.00;79.90;72435.09;5034950;28;20049;-74
2023/08/01 06:23:29;;;;;;;8.35;5.68;;;;;;;-145.00;79.58;72420.53;5053869;28;20040;-73
2023/08/01 06:25:56;;;;;;;9.05;6.03;;;;;;;-145.00;79.57;72420.53;5054154;28;20825;-74
2023/08/01 06:28:22;;;;;;;9.15;5.82;;;;;;;-145.00;79.09;72412.19;5053622;28;20583;-75
2023/08/01 06:30:50;;;;;;;12.23;5.70;;;;;;;-145.00;78.95;72401.78;5055719;28;20045;-75
2023/08/01 06:33:17;;;;;;;7.60;5.43;;;;;;;-145.00;78.21;72393.47;5057490;28;20048;-74
2023/08/01 06:35:44;;;;;;;8.43;5.28;;;;;;;-145.00;78.18;72378.88;5055959;28;20080;-74
2023/08/01 06:38:10;;;;;;;8.93;5.32;;;;;;;-145.00;78.62;72389.28;5057171;28;20049;-74
2023/08/01 06:40:37;;;;;;;7.97;5.15;;;;;;;-145.00;78.57;72383.06;5055370;28;20051;-74
2023/08/01 06:43:03;;;;;;;10.52;4.85;;;;;;;-145.00;77.82;72374.72;5052680;28;20049;-74
2023/08/01 06:45:31;;;;;;;9.55;5.20;;;;;;;-145.00;76.83;72362.25;5052454;28;20052;-74
2023/08/01 06:47:59;;;;;;;8.90;5.00;;;;;;;-145.00;77.22;72353.91;5051664;28;20049;-74
2023/08/01 06:50:25;;;;;;;8.07;5.18;;;;;;;-145.00;76.88;72358.06;5050338;28;20043;-74
2023/08/01 06:52:51;;;;;;;7.13;4.82;;;;;;;-145.00;75.14;72362.25;5050748;28;20554;-74
2023/08/01 06:55:18;;;;;;;8.70;4.32;;;;;;;-145.00;75.50;72368.47;5050083;28;20409;-75
2023/08/01 06:57:44;;;;;;;10.15;4.40;;;;;;;-145.00;75.07;72356.00;5051080;28;20044;-74
2023/08/01 07:00:12;;;;;;;9.98;4.93;;;;;;;-145.00;74.83;72383.06;5050005;28;20059;-73
2023/08/01 07:02:38;;;;;;;9.93;4.60;;;;;;;-145.00;77.15;72401.78;5050389;28;20037;-74
2023/08/01 07:05:08;;;;;;;8.30;4.63;;;;;;;-145.00;77.11;72393.47;5049972;28;20082;-74
2023/08/01 07:07:34;;;;;;;10.18;4.82;;;;;;;-145.00;76.60;72372.66;5050363;28;20045;-74
2023/08/01 07:10:01;;;;;;;9.15;4.72;;;;;;;-145.00;76.79;72401.78;5046187;28;20389;-74
2023/08/01 07:12:27;;;;;;;8.60;4.78;;;;;;;-145.00;76.54;72414.28;5050227;28;20037;-74
2023/08/01 07:14:54;;;;;;;9.13;4.63;;;;;;;-145.00;75.32;72424.69;5050433;28;20037;-74
2023/08/01 07:17:20;;;;;;;7.30;4.20;;;;;;;-145.00;75.17;72426.75;5050684;28;20143;-74
2023/08/01 07:19:47;;;;;;;9.07;4.55;;;;;;;-145.00;76.51;72426.75;5051220;28;20059;-74
2023/08/01 07:22:14;;;;;;;6.55;3.95;;;;;;;-145.00;76.75;72405.94;5049542;28;20051;-74
2023/08/01 07:24:41;;;;;;;7.20;4.43;;;;;;;-145.00;74.93;72387.22;5050777;28;20055;-75
2023/08/01 07:27:07;;;;;;;8.80;4.53;;;;;;;-145.00;74.50;72397.63;5049102;28;20045;-74
2023/08/01 07:29:34;;;;;;;8.15;4.03;;;;;;;-145.00;75.54;72376.81;5051119;28;20404;-74
2023/08/01 07:32:02;;;;;;;6.20;3.65;;;;;;;-145.00;74.61;72393.47;5050374;28;20132;-75
2023/08/01 07:34:28;;;;;;;9.15;4.43;;;;;;;-145.00;75.38;72376.81;5049063;28;20044;-75
2023/08/01 07:36:58;;;;;;;10.15;4.10;;;;;;;-145.00;74.70;72372.66;5049869;28;20051;-74
2023/08/01 07:39:26;;;;;;;7.25;4.20;;;;;;;-145.00;73.91;72372.66;5044272;28;20041;-74
2023/08/01 07:41:52;;;;;;;7.85;3.83;;;;;;;-145.00;73.24;72380.97;5049386;28;20403;-74
2023/08/01 07:44:19;;;;;;;9.50;3.92;;;;;;;-145.00;73.10;72374.72;5049354;28;20052;-74
2023/08/01 07:46:45;;;;;;;6.85;4.30;;;;;;;-145.00;72.53;72343.50;5042545;28;20055;-74
2023/08/01 07:49:12;;;;;;;6.68;4.15;;;;;;;-145.00;72.64;72314.38;5040008;28;20037;-74
2023/08/01 07:51:41;;;;;;;5.85;3.55;;;;;;;-145.00;71.85;72314.38;5051593;28;20412;-73
2023/08/01 07:54:10;;;;;;;7.03;4.00;;;;;;;-145.00;70.53;72312.28;5041619;28;20418;-74
2023/08/01 07:56:40;;;;;;;6.60;4.00;;;;;;;-145.00;69.95;72306.03;5052384;28;20049;-74
2023/08/01 07:59:07;;;;;;;7.32;3.60;;;;;;;-145.00;70.90;72353.91;5050381;28;20128;-75
2023/08/01 08:01:40;;;;;;;6.93;3.70;;;;;;;-145.00;71.96;72322.69;5041836;28;20045;-74
2023/08/01 08:04:14;;;;;;;6.80;3.85;;;;;;;-145.00;71.37;72320.59;5050319;28;20393;-74
2023/08/01 08:06:44;;;;;;;7.63;3.95;;;;;;;-145.00;71.11;72326.84;5050463;28;20104;-74
2023/08/01 08:09:24;;;;;;;9.25;4.10;;;;;;;-145.00;71.23;72303.97;5044913;28;20435;-73
2023/08/01 08:12:12;;;;;;;7.65;3.85;;;;;;;-145.00;70.57;72287.31;5043009;28;20057;-75
2023/08/01 08:14:38;;;;;;;6.90;4.10;;;;;;;-145.00;70.17;72272.72;5050675;28;20068;-74
2023/08/01 08:17:05;;;;;;;5.28;3.67;;;;;;;-145.00;68.72;72303.97;5033328;28;20052;-74
2023/08/01 08:19:32;;;;;;;9.85;3.92;;;;;;;-145.00;70.09;72272.72;5041117;28;20063;-74
2023/08/01 08:21:58;;;;;;;6.68;4.13;;;;;;;-145.00;68.72;72222.78;5038485;28;20045;-73
2023/08/01 08:24:25;;;;;;;6.78;4.13;;;;;;;-145.00;67.90;72191.56;5050209;28;20044;-73
2023/08/01 08:26:53;;;;;;;6.25;3.70;;;;;;;-145.00;67.07;72166.59;5050411;28;20056;-74
2023/08/01 08:29:19;;;;;;;9.18;4.03;;;;;;;-145.00;67.10;72160.34;5040804;28;20099;-75
2023/08/01 08:31:46;;;;;;;6.13;3.90;;;;;;;-145.00;66.75;72193.63;5049730;28;20049;-75
2023/08/01 08:34:16;;;;;;;6.60;3.33;;;;;;;-145.00;66.95;72164.50;5050017;28;20055;-73
2023/08/01 08:36:43;;;;;;;5.80;3.47;;;;;;;-145.00;66.11;72166.59;5042457;28;20052;-74
2023/08/01 08:39:12;;;;;;;8.02;3.90;;;;;;;-145.00;65.83;72172.81;5046176;28;20812;-73
2023/08/01 08:41:44;;;;;;;10.75;3.90;;;;;;;-145.00;65.36;72147.84;5056027;28;20048;-74
2023/08/01 08:44:15;;;;;;;9.80;3.80;;;;;;;-145.00;66.03;72131.19;5055669;28;20483;-73
2023/08/01 08:46:49;;;;;;;7.72;3.80;;;;;;;-145.00;66.55;72127.03;5056088;28;20056;-74
2023/08/01 08:49:16;;;;;;;6.57;4.05;;;;;;;-145.00;66.37;72149.94;5044954;28;20041;-74
2023/08/01 08:51:45;;;;;;;7.18;4.53;;;;;;;-145.00;67.24;72110.38;5059561;28;20057;-74
2023/08/01 08:54:15;;;;;;;8.63;4.30;;;;;;;-145.00;66.72;72112.47;5060721;28;20424;-74
2023/08/01 08:56:49;;;;;;;7.25;4.10;;;;;;;-145.00;65.69;72093.72;5061123;28;20150;-73
2023/08/01 08:59:17;;;;;;;8.27;4.10;;;;;;;-145.00;66.04;72077.09;5060718;28;20132;-73
2023/08/01 09:01:43;;;;;;;7.63;3.90;;;;;;;-145.00;64.94;72072.91;5060497;28;20060;-74
2023/08/01 09:04:10;;;;;;;8.13;3.97;;;;;;;-145.00;63.15;72108.31;5059889;28;20468;-74
2023/08/01 09:06:41;;;;;;;7.95;3.72;;;;;;;-145.00;64.39;72085.41;5060327;28;20390;-74
2023/08/01 09:09:11;;;;;;;9.02;4.13;;;;;;;-145.00;67.73;72102.06;5053621;28;20529;-74
2023/08/01 09:11:45;;;;;;;8.32;3.65;;;;;;;-145.00;61.08;72127.03;5061339;28;20049;-74
2023/08/01 09:14:13;;;;;;;5.32;3.40;;;;;;;-145.00;62.36;72093.72;5057958;28;20163;-73
2023/08/01 09:16:42;;;;;;;7.05;3.45;;;;;;;-145.00;60.58;72089.56;5058612;28;20048;-74
2023/08/01 09:19:09;;;;;;;6.45;3.58;;;;;;;-145.00;61.08;72072.91;5058987;28;20128;-73
2023/08/01 09:21:38;;;;;;;5.95;3.22;;;;;;;-145.00;59.86;72056.25;5059855;28;20056;-74
2023/08/01 09:24:11;;;;;;;5.65;3.20;;;;;;;-145.00;59.25;72020.88;5054782;28;20757;-74
2023/08/01 09:26:38;;;;;;;;;;;;;;;-145.00;59.26;72002.16;5056782;28;20128;-74
2023/08/01 09:29:04;;;;;;;7.70;3.30;;;;;;;-145.00;58.06;72002.16;5051999;28;19921;-74
2023/08/01 09:31:33;;;;;;;5.90;3.47;;;;;;;-145.00;58.37;71998.00;5042376;28;20049;-73
2023/08/01 09:34:02;;;;;;;4.55;2.97;;;;;;;-145.00;56.73;72000.06;5052409;28;20078;-73
2023/08/01 09:36:28;;;;;;;6.43;3.58;;;;;;;-145.00;55.48;71985.50;5052667;28;20053;-74
2023/08/01 09:38:59;;;;;;;8.15;2.90;;;;;;;-145.00;55.11;72006.31;5047296;28;20056;-74
2023/08/01 09:41:26;;;;;;;5.03;2.90;;;;;;;-145.00;55.65;71981.34;5043272;28;20049;-74
2023/08/01 09:43:52;;;;;;;5.43;3.25;;;;;;;-145.00;55.22;71981.34;5052116;28;20128;-74
2023/08/01 09:46:19;;;;;;;5.45;2.95;;;;;;;-145.00;53.87;71989.66;5052156;28;20417;-74
2023/08/01 09:48:45;;;;;;;6.45;3.40;;;;;;;-145.00;55.05;71973.00;5052390;28;20055;-73
2023/08/01 09:51:15;;;;;;;6.00;3.33;;;;;;;-145.00;54.81;72010.47;5050694;28;20041;-74
2023/08/01 09:53:52;;;;;;;5.65;3.47;;;;;;;-145.00;53.98;71985.50;5051524;28;20056;-75
2023/08/01 09:56:21;;;;;;;6.80;3.33;;;;;;;-145.00;54.63;72006.31;5050919;28;20064;-75
2023/08/01 09:58:49;;;;;;;6.90;3.30;;;;;;;-145.00;53.71;71985.50;5051534;28;20438;-74
2023/08/01 10:01:17;;;;;;;7.85;3.50;;;;;;;-145.00;53.65;71985.50;5051457;28;20140;-74
2023/08/01 10:03:48;;;;;;;6.55;3.50;;;;;;;-145.00;53.24;71977.19;5052305;28;20045;-74
2023/08/01 10:06:19;;;;;;;7.05;3.40;;;;;;;-145.00;53.29;71979.25;5051138;28;20408;-74
2023/08/01 10:08:46;;;;;;;6.90;3.08;;;;;;;-145.00;54.20;71995.91;5047434;28;20053;-74
2023/08/01 10:11:18;;;;;;;5.25;3.10;;;;;;;-145.00;53.28;72031.28;5048428;28;20056;-73
2023/08/01 10:13:44;;;;;;;5.80;3.08;;;;;;;-145.00;53.51;72000.06;5040139;28;20041;-74
2023/08/01 10:16:11;;;;;;;4.60;3.00;;;;;;;-145.00;52.74;71993.81;5050718;28;20386;-73
2023/08/01 10:18:39;;;;;;;6.90;3.28;;;;;;;-145.00;51.98;71977.19;5051374;28;20089;-74
2023/08/01 10:21:07;;;;;;;7.13;3.42;;;;;;;-145.00;52.72;72000.06;5052120;28;20065;-73
2023/08/01 10:23:36;;;;;;;7.63;3.30;;;;;;;-145.00;52.60;71998.00;5051046;28;20041;-73
2023/08/01 10:26:06;;;;;;;5.90;3.15;;;;;;;-145.00;52.59;72018.81;5050991;28;20061;-73
2023/08/01 10:28:33;;;;;;;5.63;2.95;;;;;;;-145.00;53.82;72089.56;5051442;28;20484;-73
2023/08/01 10:31:10;;;;;;;6.78;3.78;;;;;;;-145.00;55.66;72104.13;5051150;28;20416;-73
2023/08/01 10:33:38;;;;;;;6.80;3.50;;;;;;;-145.00;57.94;72152.00;5051458;28;20071;-73
2023/08/01 10:36:13;;;;;;;7.85;3.50;;;;;;;-145.00;59.34;72222.78;5051012;28;20044;-73
2023/08/01 10:38:48;;;;;;;7.07;3.53;;;;;;;-145.00;64.47;72326.84;5047876;28;20049;-73
2023/08/01 10:41:22;;;;;;;5.15;2.80;;;;;;;-145.00;66.38;72380.97;5047736;28;20063;-73
2023/08/01 10:43:49;;;;;;;6.30;2.72;;;;;;;-145.00;69.49;72410.13;5051048;28;20053;-73
2023/08/01 10:46:15;;;;;;;5.28;2.63;;;;;;;-145.00;71.46;72435.09;5050862;28;20508;-73
2023/08/01 10:48:52;;;;;;;5.13;2.42;;;;;;;-145.00;72.50;72458.00;5051357;28;20063;-74
2023/08/01 10:51:19;;;;;;;4.18;2.70;;;;;;;-145.00;74.81;72482.97;5049967;28;20084;-73
2023/08/01 10:53:47;;;;;;;4.72;1.98;;;;;;;-145.00;75.31;72482.97;5051724;28;20051;-72
2023/08/01 10:56:19;;;;;;;4.00;2.55;;;;;;;-145.00;77.53;72476.72;5050885;28;20070;-74
2023/08/01 10:58:45;;;;;;;5.65;2.28;;;;;;;-145.00;77.75;72455.91;5051172;28;20102;-73
2023/08/01 11:01:12;;;;;;;3.72;2.15;;;;;;;-145.00;78.11;72460.06;5051238;28;20053;-73
2023/08/01 11:03:41;;;;;;;4.45;2.53;;;;;;;-145.00;77.76;72433.00;5052092;28;20128;-73
2023/08/01 11:06:08;;;;;;;3.92;2.40;;;;;;;-145.00;77.88;72426.75;5050399;28;20558;-73
2023/08/01 11:08:36;;;;;;;4.07;2.45;;;;;;;-145.00;77.98;72426.75;5049295;28;20692;-73
2023/08/01 11:11:06;;;;;;;4.32;2.50;;;;;;;-145.00;77.45;72439.25;5046611;28;20394;-72
2023/08/01 11:13:34;;;;;;;4.50;2.80;;;;;;;-145.00;79.23;72430.94;5051369;28;20051;-73
2023/08/01 11:16:02;;;;;;;4.95;3.10;;;;;;;-145.00;79.68;72453.81;5050681;28;20048;-73
2023/08/01 11:18:29;;;;;;;5.53;3.30;;;;;;;-145.00;79.71;72451.75;5050420;28;20099;-73